Time;durP1;ratioP1;P1;durP2;ratioP2;P2;SDS_P1;SDS_P2;PMS_P1;PMS_P2;Temp;Humidity;BMP_temperature;BMP_pressure;BME280_temperature;BME280_humidity;BME280_pressure;Samples;Min_cycle;Max_cycle;Signal;HPM_P1;HPM_P2
2024/01/06 00:00:59;;;;;;;12.05;9.88;;;3.30;99.90;;;;;;4855022;29;20482;-90
2024/01/06 00:03:24;;;;;;;13.60;11.23;;;3.30;99.90;;;;;;4856746;29;20052;-90
2024/01/06 00:05:50;;;;;;;12.10;10.25;;;3.30;99.90;;;;;;4857568;29;20037;-90
2024/01/06 00:08:15;;;;;;;12.13;9.95;;;3.20;99.90;;;;;;4867965;29;20401;-90
2024/01/06 00:10:41;;;;;;;12.48;10.60;;;3.30;99.90;;;;;;4859292;29;20037;-90
2024/01/06 00:13:07;;;;;;;11.68;10.30;;;3.30;99.90;;;;;;4857065;29;20109;-90
2024/01/06 00:15:32;;;;;;;11.70;10.27;;;3.30;99.90;;;;;;4855633;29;20049;-90
2024/01/06 00:17:58;;;;;;;12.07;10.75;;;3.30;99.90;;;;;;4854479;29;20077;-90
2024/01/06 00:20:23;;;;;;;10.63;9.52;;;3.30;99.90;;;;;;4859532;29;20526;-90
2024/01/06 00:22:49;;;;;;;10.00;8.35;;;3.20;99.90;;;;;;4857343;29;20076;-89
2024/01/06 00:25:15;;;;;;;11.75;10.13;;;3.30;99.90;;;;;;4854891;29;20083;-89
2024/01/06 00:27:40;;;;;;;8.88;7.50;;;3.20;99.90;;;;;;4853176;29;20505;-90
2024/01/06 00:30:07;;;;;;;10.32;8.63;;;3.10;99.90;;;;;;4849370;29;20049;-88
2024/01/06 00:32:32;;;;;;;9.43;8.43;;;3.10;99.90;;;;;;4853142;29;20406;-90
2024/01/06 00:34:59;;;;;;;9.77;8.45;;;3.10;99.90;;;;;;4853352;29;20076;-89
2024/01/06 00:37:25;;;;;;;8.68;7.70;;;3.10;99.90;;;;;;4858591;29;20041;-89
2024/01/06 00:39:50;;;;;;;10.23;8.80;;;3.10;99.90;;;;;;4852453;29;20194;-89
2024/01/06 00:42:16;;;;;;;10.15;8.55;;;3.00;99.90;;;;;;4840563;29;20139;-89
2024/01/06 00:44:41;;;;;;;11.02;8.60;;;2.80;99.90;;;;;;4857749;29;20409;-89
2024/01/06 00:47:07;;;;;;;9.50;8.40;;;3.00;99.90;;;;;;4855117;29;20413;-89
2024/01/06 00:49:35;;;;;;;11.48;9.88;;;2.30;99.90;;;;;;4842345;29;20124;-89
2024/01/06 00:52:01;;;;;;;;;;;2.90;99.90;;;;;;4855277;29;20125;-89
2024/01/06 00:54:27;;;;;;;10.57;8.45;;;;;;;;;;4856883;29;20010;-89
2024/01/06 00:56:53;;;;;;;10.27;8.68;;;;;;;;;;4854658;29;20068;-89
2024/01/06 00:59:18;;;;;;;10.90;9.02;;;2.90;99.90;;;;;;4853637;29;20033;-89
2024/01/06 01:01:44;;;;;;;11.32;10.10;;;2.90;99.90;;;;;;4852884;29;20050;-89
2024/01/06 01:04:10;;;;;;;12.63;10.95;;;2.90;99.90;;;;;;4868541;29;20455;-89
2024/01/06 01:06:37;;;;;;;12.75;10.95;;;2.80;99.90;;;;;;4852450;29;20052;-90
2024/01/06 01:09:04;;;;;;;14.10;11.20;;;2.90;99.90;;;;;;4854568;29;20048;-90
2024/01/06 01:11:30;;;;;;;13.15;11.48;;;2.90;99.90;;;;;;4858146;29;20049;-89
2024/01/06 01:13:55;;;;;;;13.43;12.00;;;2.90;99.90;;;;;;4849263;29;20048;-88
2024/01/06 01:16:21;;;;;;;12.93;10.85;;;2.80;99.90;;;;;;4855343;29;20053;-89
2024/01/06 01:18:47;;;;;;;13.40;11.35;;;2.80;99.90;;;;;;4859055;29;20033;-89
2024/01/06 01:21:12;;;;;;;13.27;11.65;;;2.80;99.90;;;;;;4859661;29;20041;-89
2024/01/06 01:23:38;;;;;;;13.90;12.40;;;2.80;99.90;;;;;;4856374;29;20530;-88
2024/01/06 01:26:04;;;;;;;12.30;10.40;;;2.80;99.90;;;;;;4860584;29;20064;-89
2024/01/06 01:28:30;;;;;;;11.63;10.43;;;2.80;99.90;;;;;;4859178;29;20049;-90
2024/01/06 01:30:55;;;;;;;14.15;12.65;;;2.70;99.90;;;;;;4858589;29;20047;-90
2024/01/06 01:33:21;;;;;;;12.43;9.63;;;2.70;99.90;;;;;;4862033;29;20037;-90
2024/01/06 01:35:47;;;;;;;13.75;11.98;;;2.70;99.90;;;;;;4847684;29;20038;-90
2024/01/06 01:38:12;;;;;;;14.50;12.40;;;2.70;99.90;;;;;;4870099;29;20101;-90
2024/01/06 01:40:38;;;;;;;17.08;13.02;;;2.60;99.90;;;;;;4861481;29;20478;-90
2024/01/06 01:43:03;;;;;;;17.48;13.45;;;2.60;99.90;;;;;;4862823;29;20406;-89
2024/01/06 01:45:29;;;;;;;15.23;11.77;;;2.60;99.90;;;;;;4860245;29;20044;-90
2024/01/06 01:47:55;;;;;;;17.60;14.02;;;2.60;99.90;;;;;;4877809;29;20733;-89
2024/01/06 01:50:22;;;;;;;20.17;16.35;;;2.50;99.90;;;;;;4873178;29;20039;-90
2024/01/06 01:52:48;;;;;;;17.77;15.63;;;2.60;99.90;;;;;;4869836;29;20121;-90
2024/01/06 01:55:14;;;;;;;23.70;17.88;;;2.50;99.90;;;;;;4860848;29;20048;-90
2024/01/06 01:57:40;;;;;;;21.02;16.92;;;2.50;99.90;;;;;;4875869;29;20434;-90
2024/01/06 02:00:06;;;;;;;20.95;16.48;;;2.50;99.90;;;;;;4860526;29;20098;-90
2024/01/06 02:02:32;;;;;;;18.65;15.27;;;2.40;99.90;;;;;;4869202;29;20045;-90
2024/01/06 02:04:59;;;;;;;18.75;16.10;;;2.40;99.90;;;;;;4855958;29;20048;-89
2024/01/06 02:07:25;;;;;;;14.15;12.07;;;2.40;99.90;;;;;;4855157;29;20045;-89
2024/01/06 02:09:50;;;;;;;18.15;15.85;;;2.40;99.90;;;;;;4853881;29;20094;-90
2024/01/06 02:12:16;;;;;;;18.27;15.23;;;2.30;99.90;;;;;;4856995;29;20148;-89
2024/01/06 02:14:43;;;;;;;20.52;16.88;;;2.30;99.90;;;;;;4857493;29;20565;-89
2024/01/06 02:17:08;;;;;;;16.52;14.38;;;2.30;99.90;;;;;;4859000;29;20120;-90
2024/01/06 02:19:34;;;;;;;21.20;14.95;;;2.40;99.90;;;;;;4854686;29;20132;-90
2024/01/06 02:22:00;;;;;;;22.40;16.67;;;2.30;99.90;;;;;;4856380;29;20177;-90
2024/01/06 02:24:26;;;;;;;21.40;15.77;;;2.40;99.90;;;;;;4858541;29;20033;-90
2024/01/06 02:26:52;;;;;;;16.05;13.23;;;2.30;99.90;;;;;;4874667;29;20048;-91
2024/01/06 02:29:17;;;;;;;21.55;15.45;;;2.30;99.90;;;;;;4859049;29;20056;-91
2024/01/06 02:31:43;;;;;;;17.08;14.18;;;2.30;99.90;;;;;;4854142;29;20041;-91
2024/01/06 02:34:09;;;;;;;15.43;12.43;;;2.20;99.90;;;;;;4852965;29;20052;-91
2024/01/06 02:36:35;;;;;;;21.10;16.55;;;;;;;;;;4859957;29;20045;-91
2024/01/06 02:39:01;;;;;;;19.95;16.27;;;2.10;99.90;;;;;;4857599;29;20094;-91
2024/01/06 02:41:26;;;;;;;23.23;16.75;;;2.00;99.90;;;;;;4852199;29;20155;-90
2024/01/06 02:43:54;;;;;;;21.67;16.25;;;2.00;99.90;;;;;;4852403;29;20079;-90
2024/01/06 02:46:20;;;;;;;18.08;14.57;;;2.00;99.90;;;;;;4846056;29;20053;-90
2024/01/06 02:48:45;;;;;;;19.45;14.93;;;2.00;99.90;;;;;;4845160;29;20044;-90
2024/01/06 02:51:12;;;;;;;17.63;14.27;;;1.70;99.90;;;;;;4855996;29;20128;-90
2024/01/06 02:53:38;;;;;;;17.33;14.15;;;2.00;99.90;;;;;;4855851;29;20055;-90
2024/01/06 02:56:04;;;;;;;13.70;10.02;;;;;;;;;;4856225;29;20497;-89
2024/01/06 02:58:30;;;;;;;24.92;18.73;;;1.90;99.90;;;;;;4857216;29;20467;-90
2024/01/06 03:00:56;;;;;;;20.55;15.13;;;2.20;99.90;;;;;;4857741;29;20044;-90
2024/01/06 03:03:21;;;;;;;18.88;14.98;;;2.00;99.90;;;;;;4858061;29;20097;-89
2024/01/06 03:05:48;;;;;;;18.38;13.13;;;1.80;99.90;;;;;;4860659;29;20130;-90
2024/01/06 03:08:16;;;;;;;26.45;17.05;;;1.80;99.90;;;;;;4871847;29;20079;-90
2024/01/06 03:10:41;;;;;;;23.35;18.02;;;2.00;99.90;;;;;;4856932;29;20638;-90
2024/01/06 03:13:07;;;;;;;23.65;17.85;;;2.00;99.90;;;;;;4837486;29;20558;-91
2024/01/06 03:15:32;;;;;;;22.15;16.60;;;2.30;99.90;;;;;;4860190;29;20048;-90
2024/01/06 03:17:58;;;;;;;20.13;15.57;;;2.00;99.90;;;;;;4859161;29;20044;-90
2024/01/06 03:20:24;;;;;;;19.25;15.05;;;1.80;99.90;;;;;;4858322;29;20072;-91
2024/01/06 03:22:49;;;;;;;18.70;13.70;;;2.00;99.90;;;;;;4854758;29;20072;-90
2024/01/06 03:25:15;;;;;;;13.68;10.80;;;2.00;99.90;;;;;;4858914;29;20045;-91
2024/01/06 03:27:41;;;;;;;15.18;12.48;;;2.10;99.90;;;;;;4875742;29;20116;-90
2024/01/06 03:30:07;;;;;;;19.65;13.85;;;1.80;99.90;;;;;;4856663;29;20041;-89
2024/01/06 03:32:33;;;;;;;18.98;13.88;;;;;;;;;;4844681;29;20045;-90
2024/01/06 03:34:58;;;;;;;19.23;15.10;;;2.00;99.90;;;;;;4856210;29;20047;-90
2024/01/06 03:37:25;;;;;;;18.25;13.48;;;1.40;99.90;;;;;;4846886;29;20542;-90
2024/01/06 03:39:51;;;;;;;17.42;12.52;;;2.00;99.90;;;;;;4856881;29;20068;-90
2024/01/06 03:42:16;;;;;;;24.70;16.83;;;1.70;99.90;;;;;;4856448;29;20052;-90
2024/01/06 03:44:42;;;;;;;21.02;15.23;;;2.00;99.90;;;;;;4856978;29;20056;-91
2024/01/06 03:47:08;;;;;;;22.60;16.63;;;1.80;99.90;;;;;;4863521;29;20041;-90
2024/01/06 03:49:34;;;;;;;21.02;15.18;;;;;;;;;;4874039;29;20032;-90
2024/01/06 03:52:00;;;;;;;21.13;16.73;;;;;;;;;;4847741;29;20045;-89
2024/01/06 03:54:26;;;;;;;21.50;15.13;;;;;;;;;;4853951;29;20070;-90
2024/01/06 03:56:52;;;;;;;18.00;13.75;;;;;;;;;;4859094;29;20070;-90
2024/01/06 03:59:18;;;;;;;24.52;17.92;;;;;;;;;;4855169;29;20056;-90
2024/01/06 04:01:44;;;;;;;22.30;15.00;;;;;;;;;;4853956;29;20109;-90
2024/01/06 04:04:10;;;;;;;21.13;15.30;;;;;;;;;;4842964;29;20078;-90
2024/01/06 04:06:36;;;;;;;20.77;14.82;;;;;;;;;;4858768;29;20048;-90
2024/01/06 04:09:02;;;;;;;23.50;16.88;;;;;;;;;;4855153;29;20045;-90
2024/01/06 04:11:28;;;;;;;25.20;17.65;;;;;;;;;;4857490;29;20049;-90
2024/01/06 04:13:54;;;;;;;21.83;16.48;;;;;;;;;;4858809;29;20048;-90
2024/01/06 04:16:20;;;;;;;25.20;16.35;;;;;;;;;;4854253;29;20096;-90
2024/01/06 04:18:46;;;;;;;24.83;17.55;;;;;;;;;;4847758;29;20051;-90
2024/01/06 04:21:12;;;;;;;26.88;17.55;;;;;;;;;;4854868;29;20065;-91
2024/01/06 04:23:39;;;;;;;23.50;17.17;;;;;;;;;;4839855;29;20157;-90
2024/01/06 04:26:06;;;;;;;17.83;12.60;;;;;;;;;;4854800;29;20049;-90
2024/01/06 04:28:32;;;;;;;22.58;14.77;;;;;;;;;;4863502;29;20052;-90
2024/01/06 04:30:58;;;;;;;22.02;17.13;;;;;;;;;;4839990;29;20052;-90
2024/01/06 04:33:24;;;;;;;24.38;17.55;;;;;;;;;;4862834;29;20127;-91
2024/01/06 04:35:50;;;;;;;24.70;18.27;;;;;;;;;;4854862;29;20140;-90
2024/01/06 04:38:16;;;;;;;24.02;17.75;;;;;;;;;;4857496;29;20128;-91
2024/01/06 04:40:43;;;;;;;19.42;14.27;;;;;;;;;;4841477;29;20065;-91
2024/01/06 04:43:09;;;;;;;20.63;15.20;;;;;;;;;;4843588;29;20041;-91
2024/01/06 04:45:37;;;;;;;19.73;13.27;;;;;;;;;;4857654;29;20052;-91
2024/01/06 04:48:03;;;;;;;20.20;14.48;;;;;;;;;;4856549;29;20159;-91
2024/01/06 04:50:29;;;;;;;18.23;13.25;;;;;;;;;;4858958;29;20045;-91
2024/01/06 04:52:55;;;;;;;21.77;15.38;;;;;;;;;;4855644;29;20116;-91
2024/01/06 04:55:21;;;;;;;15.18;11.45;;;;;;;;;;4853330;29;20447;-90
2024/01/06 04:57:49;;;;;;;23.05;16.35;;;;;;;;;;4855614;29;20554;-90
2024/01/06 05:00:15;;;;;;;24.02;17.10;;;;;;;;;;4843181;29;20049;-91
2024/01/06 05:02:41;;;;;;;21.40;14.50;;;;;;;;;;4839420;29;20223;-90
2024/01/06 05:05:07;;;;;;;24.50;17.95;;;;;;;;;;4855486;29;20041;-90
2024/01/06 05:07:33;;;;;;;22.38;13.50;;;;;;;;;;4856512;29;20052;-90
2024/01/06 05:09:59;;;;;;;23.42;15.80;;;;;;;;;;4857357;29;20619;-90
2024/01/06 05:12:25;;;;;;;28.98;17.90;;;;;;;;;;4852777;29;20325;-91
2024/01/06 05:14:51;;;;;;;26.92;18.55;;;;;;;;;;4856865;29;20498;-90
2024/01/06 05:17:17;;;;;;;25.52;18.25;;;;;;;;;;4844885;29;20068;-91
2024/01/06 05:19:43;;;;;;;26.15;16.98;;;;;;;;;;4857038;29;20037;-91
2024/01/06 05:22:09;;;;;;;23.00;16.27;;;;;;;;;;4857778;29;20051;-91
2024/01/06 05:24:36;;;;;;;26.38;18.27;;;;;;;;;;4856082;29;20325;-90
2024/01/06 05:27:02;;;;;;;23.25;15.85;;;;;;;;;;4853192;29;20041;-91
2024/01/06 05:29:28;;;;;;;25.42;16.45;;;;;;;;;;4843820;29;20085;-91
2024/01/06 05:31:54;;;;;;;24.35;16.83;;;;;;;;;;4846331;29;20149;-91
2024/01/06 05:34:20;;;;;;;22.45;14.48;;;;;;;;;;4856310;29;20049;-91
2024/01/06 05:36:45;;;;;;;23.63;15.77;;;1.40;99.90;;;;;;4855829;29;20045;-91
2024/01/06 05:39:11;;;;;;;19.17;12.73;;;1.60;99.90;;;;;;4862631;29;20040;-91
2024/01/06 05:41:40;;;;;;;26.75;17.52;;;1.50;99.90;;;;;;4852481;29;20660;-91
2024/01/06 05:44:06;;;;;;;20.98;14.75;;;1.50;99.90;;;;;;4838638;29;20121;-91
2024/01/06 05:46:32;;;;;;;16.15;11.27;;;1.50;99.90;;;;;;4874734;29;20044;-91
2024/01/06 05:48:57;;;;;;;18.85;11.50;;;1.40;99.90;;;;;;4856702;29;20154;-91
2024/01/06 05:51:23;;;;;;;22.25;14.10;;;1.40;99.90;;;;;;4860472;29;20139;-91
2024/01/06 05:53:49;;;;;;;24.75;13.93;;;1.40;99.90;;;;;;4855842;29;20041;-91
2024/01/06 05:56:27;;;;;;;19.13;13.02;;;1.40;99.90;;;;;;4859895;29;20084;-91
2024/01/06 05:58:53;;;;;;;23.65;15.38;;;1.30;99.90;;;;;;4853672;29;20037;-94
2024/01/06 06:01:20;;;;;;;19.05;12.18;;;1.30;99.90;;;;;;4855654;29;20326;-89
2024/01/06 06:03:47;;;;;;;19.73;12.68;;;1.30;99.90;;;;;;4859908;29;20067;-90
2024/01/06 06:06:13;;;;;;;20.40;11.90;;;1.40;99.90;;;;;;4846232;29;20277;-90
2024/01/06 06:08:41;;;;;;;22.15;12.52;;;1.30;99.90;;;;;;4857193;29;20068;-90
2024/01/06 06:11:10;;;;;;;21.15;14.77;;;1.40;99.90;;;;;;4858149;29;20079;-90
2024/01/06 06:13:40;;;;;;;21.80;14.55;;;1.30;99.90;;;;;;4860373;29;20044;-90
2024/01/06 06:16:07;;;;;;;16.13;11.73;;;1.30;99.90;;;;;;4873161;29;20089;-91
2024/01/06 06:18:33;;;;;;;23.38;14.30;;;1.40;99.90;;;;;;4857696;29;20117;-91
2024/01/06 06:20:59;;;;;;;20.15;12.48;;;1.30;99.90;;;;;;4862109;29;20109;-91
2024/01/06 06:23:27;;;;;;;17.23;11.15;;;1.30;99.90;;;;;;4878641;29;20041;-91
2024/01/06 06:25:52;;;;;;;16.42;10.68;;;1.30;99.90;;;;;;4862261;29;20065;-90
2024/01/06 06:28:18;;;;;;;20.63;14.15;;;1.30;99.90;;;;;;4861551;29;20033;-90
2024/01/06 06:30:44;;;;;;;20.85;13.55;;;1.20;99.90;;;;;;4857416;29;20498;-90
2024/01/06 06:33:09;;;;;;;18.83;12.30;;;1.30;99.90;;;;;;4857970;29;20040;-90
2024/01/06 06:35:35;;;;;;;20.98;12.73;;;1.20;99.90;;;;;;4859155;29;20568;-90
2024/01/06 06:38:00;;;;;;;27.00;15.52;;;1.20;99.90;;;;;;4860817;29;20043;-90
2024/01/06 06:40:26;;;;;;;17.75;11.48;;;1.10;99.90;;;;;;4858303;29;20037;-90
2024/01/06 06:42:52;;;;;;;17.40;10.82;;;1.10;99.90;;;;;;4858412;29;20513;-89
2024/01/06 06:45:20;;;;;;;20.42;13.27;;;1.20;99.90;;;;;;4851619;29;20033;-90
2024/01/06 06:47:46;;;;;;;16.27;9.80;;;1.20;99.90;;;;;;4861018;29;20045;-90
2024/01/06 06:50:11;;;;;;;17.80;11.88;;;1.20;99.90;;;;;;4846103;29;20136;-91
2024/01/06 06:52:37;;;;;;;22.35;13.00;;;1.00;99.90;;;;;;4859974;29;20100;-90
2024/01/06 06:55:03;;;;;;;13.77;7.85;;;1.10;99.90;;;;;;4860109;29;20447;-91
2024/01/06 06:57:28;;;;;;;15.35;11.23;;;1.10;99.90;;;;;;4859849;29;20546;-91
2024/01/06 06:59:54;;;;;;;19.55;12.35;;;1.10;99.90;;;;;;4859112;29;20500;-91
2024/01/06 07:02:20;;;;;;;22.27;13.68;;;1.10;99.90;;;;;;4858133;29;20045;-90
2024/01/06 07:04:45;;;;;;;19.52;12.48;;;1.20;99.90;;;;;;4852497;29;20124;-91
2024/01/06 07:07:11;;;;;;;14.95;9.82;;;1.20;99.90;;;;;;4850574;29;20044;-91
2024/01/06 07:09:36;;;;;;;18.63;13.80;;;1.20;99.90;;;;;;4851692;29;20387;-91
2024/01/06 07:12:02;;;;;;;19.80;11.80;;;1.10;99.90;;;;;;4853383;29;20033;-90
2024/01/06 07:14:28;;;;;;;20.75;12.60;;;1.20;99.90;;;;;;4856356;29;20092;-90
2024/01/06 07:16:53;;;;;;;19.83;11.15;;;1.10;99.90;;;;;;4852092;29;20045;-90
2024/01/06 07:19:19;;;;;;;14.98;9.80;;;1.10;99.90;;;;;;4865530;29;20465;-91
2024/01/06 07:21:45;;;;;;;20.38;12.93;;;;;;;;;;4851685;29;20135;-90
2024/01/06 07:24:11;;;;;;;17.40;12.15;;;0.90;99.90;;;;;;4854254;29;20075;-89
2024/01/06 07:26:36;;;;;;;21.67;13.18;;;1.00;99.90;;;;;;4850065;29;20081;-90
2024/01/06 07:29:02;;;;;;;19.35;12.15;;;1.00;99.90;;;;;;4867762;29;20084;-90
2024/01/06 07:31:28;;;;;;;20.23;12.85;;;0.90;99.90;;;;;;4851317;29;20057;-90
2024/01/06 07:33:53;;;;;;;22.05;13.43;;;0.90;99.90;;;;;;4849886;29;20486;-90
2024/01/06 07:36:19;;;;;;;22.02;14.07;;;1.00;99.90;;;;;;4864795;29;20037;-90
2024/01/06 07:38:45;;;;;;;22.95;14.90;;;1.10;99.90;;;;;;4849739;29;20109;-90
2024/01/06 07:41:11;;;;;;;19.35;13.55;;;1.00;99.90;;;;;;4850443;29;20052;-89
2024/01/06 07:43:37;;;;;;;19.60;13.95;;;1.10;99.90;;;;;;4848562;29;20045;-89
2024/01/06 07:46:03;;;;;;;21.13;13.73;;;1.00;99.90;;;;;;4849816;29;20051;-90
2024/01/06 07:48:29;;;;;;;21.70;15.07;;;1.10;99.90;;;;;;4848979;29;20041;-90
2024/01/06 07:50:55;;;;;;;15.77;10.63;;;1.00;99.90;;;;;;4850198;29;20109;-90
2024/01/06 07:53:20;;;;;;;19.98;12.88;;;1.00;99.90;;;;;;4863752;29;20088;-89
2024/01/06 07:55:46;;;;;;;20.48;13.40;;;1.00;99.90;;;;;;4854398;29;20037;-89
2024/01/06 07:58:12;;;;;;;21.35;13.40;;;0.90;99.90;;;;;;4851080;29;20049;-90
2024/01/06 08:00:38;;;;;;;19.60;13.10;;;1.00;99.90;;;;;;4853896;29;20029;-89
2024/01/06 08:03:05;;;;;;;20.45;14.50;;;0.90;99.90;;;;;;4855761;29;20048;-89
2024/01/06 08:05:31;;;;;;;19.88;12.73;;;1.00;99.90;;;;;;4856634;29;20073;-89
2024/01/06 08:07:58;;;;;;;17.17;13.75;;;1.00;99.90;;;;;;4858011;29;20049;-90
2024/01/06 08:10:24;;;;;;;19.15;13.90;;;1.00;99.90;;;;;;4858317;29;20049;-92
2024/01/06 08:12:49;;;;;;;22.13;14.57;;;1.10;99.90;;;;;;4860682;29;20096;-91
2024/01/06 08:15:15;;;;;;;17.05;11.27;;;1.20;99.90;;;;;;4857250;29;20063;-90
2024/01/06 08:17:41;;;;;;;14.00;10.57;;;1.00;99.90;;;;;;4855392;29;20453;-90
2024/01/06 08:20:08;;;;;;;13.38;9.63;;;1.00;99.90;;;;;;4858026;29;20033;-90
2024/01/06 08:22:34;;;;;;;17.23;13.00;;;1.10;99.90;;;;;;4861137;29;20478;-90
2024/01/06 08:24:59;;;;;;;12.88;8.43;;;1.10;99.90;;;;;;4857590;29;20045;-90
2024/01/06 08:27:25;;;;;;;14.32;10.82;;;1.10;99.90;;;;;;4865061;29;20124;-89
2024/01/06 08:29:51;;;;;;;13.70;9.48;;;1.10;99.90;;;;;;4853791;29;20044;-90
2024/01/06 08:32:16;;;;;;;17.50;10.88;;;1.10;99.90;;;;;;4856916;29;20037;-91
2024/01/06 08:34:42;;;;;;;17.23;14.38;;;1.10;99.90;;;;;;4859156;29;20153;-90
2024/01/06 08:37:08;;;;;;;16.40;12.23;;;1.10;99.90;;;;;;4862340;29;20044;-90
2024/01/06 08:39:33;;;;;;;17.65;14.18;;;1.20;99.90;;;;;;4859657;29;20135;-91
2024/01/06 08:41:59;;;;;;;15.10;11.70;;;1.30;99.90;;;;;;4860057;29;20092;-91
2024/01/06 08:44:24;;;;;;;11.73;8.48;;;1.20;99.90;;;;;;4859504;29;20045;-91
2024/01/06 08:46:50;;;;;;;14.95;11.60;;;1.20;99.90;;;;;;4855510;29;20410;-91
2024/01/06 08:49:17;;;;;;;14.85;12.63;;;1.20;99.90;;;;;;4859055;29;20040;-90
2024/01/06 08:51:43;;;;;;;17.02;13.00;;;1.40;99.90;;;;;;4858854;29;20166;-91
2024/01/06 08:54:09;;;;;;;17.63;14.32;;;1.20;99.90;;;;;;4861089;29;20093;-91
2024/01/06 08:56:35;;;;;;;20.13;15.50;;;1.30;99.90;;;;;;4860888;29;20489;-91
2024/01/06 08:59:02;;;;;;;15.50;11.43;;;1.20;99.90;;;;;;4860190;29;20071;-91
2024/01/06 09:01:27;;;;;;;14.85;11.10;;;1.30;99.90;;;;;;4856669;29;20056;-92
2024/01/06 09:03:53;;;;;;;15.90;11.23;;;1.20;99.90;;;;;;4855122;29;20041;-91
2024/01/06 09:06:18;;;;;;;15.32;12.93;;;1.20;99.90;;;;;;4842156;29;20041;-91
2024/01/06 09:08:44;;;;;;;14.70;11.73;;;1.30;99.90;;;;;;4846105;29;20033;-91
2024/01/06 09:11:10;;;;;;;16.42;12.50;;;1.20;99.90;;;;;;4854874;29;20049;-89
2024/01/06 09:13:35;;;;;;;17.25;14.38;;;1.20;99.90;;;;;;4866929;29;20371;-90
2024/01/06 09:16:01;;;;;;;15.27;12.90;;;1.30;99.90;;;;;;4823447;29;20053;-90
2024/01/06 09:18:27;;;;;;;18.33;14.88;;;1.20;99.90;;;;;;4818334;29;20042;-89
2024/01/06 09:20:53;;;;;;;12.55;11.05;;;1.20;99.90;;;;;;4838701;29;20034;-91
2024/01/06 09:23:20;;;;;;;12.48;9.85;;;1.20;99.90;;;;;;4839114;29;20045;-90
2024/01/06 09:25:49;;;;;;;13.05;10.38;;;1.20;99.90;;;;;;4835948;29;20116;-90
2024/01/06 09:28:15;;;;;;;14.73;12.70;;;1.20;99.90;;;;;;4841204;29;20112;-91
2024/01/06 09:30:41;;;;;;;11.43;9.60;;;1.20;99.90;;;;;;4837867;29;20060;-91
2024/01/06 09:33:08;;;;;;;12.95;9.88;;;1.20;99.90;;;;;;4857392;29;20041;-91
2024/01/06 09:35:34;;;;;;;13.82;10.98;;;1.30;99.90;;;;;;4836036;29;20097;-92
2024/01/06 09:37:59;;;;;;;13.70;12.18;;;1.30;99.90;;;;;;4845009;29;20498;-91
2024/01/06 09:40:25;;;;;;;12.13;10.82;;;1.30;99.90;;;;;;4842789;29;20046;-92
2024/01/06 09:42:51;;;;;;;14.23;12.73;;;1.30;99.90;;;;;;4844513;29;20249;-90
2024/01/06 09:45:17;;;;;;;11.95;9.77;;;1.30;99.90;;;;;;4858755;29;20045;-91
2024/01/06 09:47:48;;;;;;;14.32;12.63;;;1.30;99.90;;;;;;4846137;29;20065;-93
2024/01/06 09:50:18;;;;;;;11.93;9.60;;;1.40;99.90;;;;;;4843481;29;20037;-92
2024/01/06 09:52:53;;;;;;;13.55;11.05;;;1.30;99.90;;;;;;4858813;29;20042;-92
2024/01/06 09:55:26;;;;;;;11.80;10.15;;;1.30;99.90;;;;;;4847034;29;20045;-91
2024/01/06 09:57:53;;;;;;;11.23;8.80;;;1.40;99.90;;;;;;4823909;29;20073;-90
2024/01/06 10:00:20;;;;;;;11.15;9.35;;;1.40;99.90;;;;;;4840713;29;20030;-91
2024/01/06 10:02:46;;;;;;;14.98;12.82;;;1.30;99.90;;;;;;4825269;29;20136;-91
2024/01/06 10:05:13;;;;;;;14.85;13.07;;;1.40;99.90;;;;;;4854161;29;20077;-90
2024/01/06 10:07:43;;;;;;;17.75;14.27;;;1.50;99.90;;;;;;4837720;29;20060;-90
2024/01/06 10:10:10;;;;;;;15.25;13.65;;;1.40;99.90;;;;;;4828994;29;20306;-91
2024/01/06 10:12:38;;;;;;;11.35;9.35;;;1.50;99.90;;;;;;4843638;29;20046;-91
2024/01/06 10:15:05;;;;;;;14.55;12.18;;;1.50;99.90;;;;;;4853706;29;20152;-90
2024/01/06 10:17:30;;;;;;;12.50;10.20;;;1.50;99.90;;;;;;4859982;29;20049;-90
2024/01/06 10:19:56;;;;;;;13.82;12.35;;;1.40;99.90;;;;;;4840407;29;20180;-91
2024/01/06 10:22:22;;;;;;;12.90;10.77;;;1.50;99.90;;;;;;4861909;29;20045;-96
2024/01/06 10:24:47;;;;;;;12.32;10.13;;;1.50;99.90;;;;;;4850284;29;20041;-96
2024/01/06 10:27:13;;;;;;;11.10;9.93;;;1.50;99.90;;;;;;4866096;29;20105;-95
2024/01/06 10:29:39;;;;;;;15.00;12.13;;;1.50;99.90;;;;;;4859648;29;20067;-95
2024/01/06 10:32:04;;;;;;;13.00;11.68;;;1.50;99.90;;;;;;4866629;29;20034;-93
2024/01/06 10:34:32;;;;;;;13.52;12.13;;;1.50;99.90;;;;;;4857553;29;20109;-93
2024/01/06 10:36:58;;;;;;;10.23;8.83;;;1.50;99.90;;;;;;4856079;29;20032;-93
2024/01/06 10:39:25;;;;;;;12.52;11.23;;;1.50;99.90;;;;;;4854029;29;20357;-93
2024/01/06 10:41:52;;;;;;;10.93;8.82;;;1.60;99.90;;;;;;4852912;29;20036;-92
2024/01/06 10:44:20;;;;;;;10.13;9.00;;;1.50;99.90;;;;;;4859542;29;20037;-93
2024/01/06 10:46:48;;;;;;;13.15;11.75;;;1.50;99.90;;;;;;4873014;29;20085;-93
2024/01/06 10:49:17;;;;;;;14.15;12.68;;;1.60;99.90;;;;;;4860683;29;20045;-93
2024/01/06 10:51:44;;;;;;;13.65;12.23;;;1.60;99.90;;;;;;4860808;29;20514;-93
2024/01/06 10:54:12;;;;;;;14.15;12.65;;;1.60;99.90;;;;;;4861788;29;20041;-93
2024/01/06 10:56:38;;;;;;;12.63;10.18;;;1.50;99.90;;;;;;4858452;29;20352;-93
2024/01/06 10:59:05;;;;;;;14.32;12.73;;;1.40;99.90;;;;;;4863066;29;20704;-93
2024/01/06 11:01:32;;;;;;;14.82;13.27;;;1.50;99.90;;;;;;4858418;29;20068;-93
2024/01/06 11:03:59;;;;;;;13.75;12.15;;;1.50;99.90;;;;;;4862192;29;20084;-93
2024/01/06 11:06:26;;;;;;;11.88;10.55;;;1.50;99.90;;;;;;4859478;29;20483;-93
2024/01/06 11:09:21;;;;;;;10.52;9.45;;;1.50;99.90;;;;;;4860997;29;20513;-94
2024/01/06 11:11:48;;;;;;;16.15;13.50;;;1.50;99.90;;;;;;4848942;29;20045;-93
2024/01/06 11:14:23;;;;;;;16.13;14.43;;;1.50;99.90;;;;;;4861503;29;20064;-93
2024/01/06 11:16:50;;;;;;;13.73;11.93;;;1.60;99.90;;;;;;4862155;29;20478;-94
2024/01/06 11:19:34;;;;;;;15.30;13.77;;;1.50;99.90;;;;;;4861517;29;20036;-93
2024/01/06 11:22:31;;;;;;;14.63;11.40;;;1.60;99.90;;;;;;4861192;29;20045;-93
2024/01/06 11:25:08;;;;;;;15.88;12.93;;;1.60;99.90;;;;;;4861910;29;20071;-93
2024/01/06 11:27:35;;;;;;;14.27;12.38;;;1.60;99.90;;;;;;4860175;29;20128;-93
2024/01/06 11:30:06;;;;;;;13.23;11.83;;;1.50;99.90;;;;;;4862431;29;20051;-93
2024/01/06 11:32:35;;;;;;;12.73;11.15;;;1.50;99.90;;;;;;4855753;29;20040;-92
2024/01/06 11:35:18;;;;;;;13.90;12.35;;;1.50;99.90;;;;;;4858748;29;20040;-92
2024/01/06 11:37:43;;;;;;;16.95;14.25;;;1.50;99.90;;;;;;4865043;29;20045;-92
2024/01/06 11:40:29;;;;;;;11.88;9.52;;;1.50;99.90;;;;;;4852572;29;20076;-93
2024/01/06 11:43:09;;;;;;;16.08;13.55;;;1.50;99.90;;;;;;4871498;29;20040;-94
2024/01/06 11:45:37;;;;;;;14.18;12.40;;;1.50;99.90;;;;;;4868023;29;20037;-96
2024/01/06 11:48:05;;;;;;;18.17;14.90;;;1.50;99.90;;;;;;4860711;29;20048;-93
2024/01/06 11:50:36;;;;;;;17.42;13.75;;;1.50;99.90;;;;;;4874909;29;20827;-93
2024/01/06 11:53:03;;;;;;;16.55;14.70;;;1.50;99.90;;;;;;4876280;29;20123;-93
2024/01/06 11:55:31;;;;;;;18.75;16.17;;;1.50;99.90;;;;;;4874469;29;20040;-92
2024/01/06 11:58:01;;;;;;;;;;;1.50;99.90;;;;;;4873580;29;20777;-93
2024/01/06 12:00:27;;;;;;;16.75;14.20;;;1.50;99.90;;;;;;4874218;29;19920;-93
2024/01/06 12:03:00;;;;;;;16.77;14.43;;;1.50;99.90;;;;;;4874740;29;20047;-94
2024/01/06 12:05:27;;;;;;;15.80;13.07;;;1.40;99.90;;;;;;4856493;29;20040;-93
2024/01/06 12:07:58;;;;;;;13.75;11.80;;;1.50;99.90;;;;;;4875073;29;20045;-93
2024/01/06 12:10:25;;;;;;;17.55;14.77;;;1.40;99.90;;;;;;4854643;29;20053;-93
2024/01/06 12:13:08;;;;;;;14.32;12.68;;;1.40;99.90;;;;;;4873599;29;20297;-93
2024/01/06 12:15:34;;;;;;;17.92;14.82;;;1.40;99.90;;;;;;4874491;29;20502;-93
2024/01/06 12:18:03;;;;;;;16.50;13.95;;;1.50;99.90;;;;;;4855426;29;20063;-94
2024/01/06 12:20:29;;;;;;;17.80;15.88;;;1.40;99.90;;;;;;4858530;29;20041;-93
2024/01/06 12:22:56;;;;;;;20.42;16.95;;;1.50;99.90;;;;;;4858285;29;20036;-93
2024/01/06 12:25:23;;;;;;;20.80;15.73;;;1.50;99.90;;;;;;4856305;29;20117;-92
2024/01/06 12:27:50;;;;;;;19.48;17.02;;;1.50;99.90;;;;;;4865734;29;20049;-93
2024/01/06 12:30:18;;;;;;;17.00;15.15;;;1.50;99.90;;;;;;4863727;29;20088;-92
2024/01/06 12:32:54;;;;;;;17.30;15.38;;;1.50;99.90;;;;;;4861412;29;20069;-89
2024/01/06 12:35:21;;;;;;;18.35;14.90;;;1.50;99.90;;;;;;4855299;29;20298;-91
2024/01/06 12:37:47;;;;;;;19.10;15.60;;;1.50;99.90;;;;;;4846138;29;20049;-90
2024/01/06 12:40:16;;;;;;;19.65;17.25;;;1.50;99.90;;;;;;4852840;29;20033;-94
2024/01/06 12:42:43;;;;;;;18.10;14.55;;;1.60;99.90;;;;;;4856813;29;20041;-91
2024/01/06 12:45:11;;;;;;;18.60;14.05;;;1.50;99.90;;;;;;4852968;29;20100;-94
2024/01/06 12:47:37;;;;;;;18.08;16.23;;;1.50;99.90;;;;;;4853717;29;20053;-92
2024/01/06 12:50:04;;;;;;;18.63;16.58;;;1.50;99.90;;;;;;4860356;29;20041;-92